createdAt,value
2022-08-08T00:00:54.390Z,94.70
2022-08-08T00:03:32.077Z,95.46
2022-08-08T00:06:35.531Z,96.24
2022-08-08T00:09:34.074Z,96.95
2022-08-08T00:12:09.713Z,96.66
2022-08-08T00:14:58.906Z,96.85
2022-08-08T00:18:16.707Z,97.52
2022-08-08T00:20:51.426Z,97.47
2022-08-08T00:23:42.725Z,96.72
2022-08-08T00:26:14.652Z,95.83
2022-08-08T00:28:52.746Z,96.75
2022-08-08T00:32:20.178Z,97.38
2022-08-08T00:35:04.051Z,98.25
2022-08-08T00:38:01.495Z,99.00
2022-08-08T00:41:12.734Z,98.52
2022-08-08T00:43:56.031Z,98.05
2022-08-08T00:46:57.049Z,98.46
2022-08-08T00:49:42.177Z,98.64
2022-08-08T00:52:48.806Z,99.13
2022-08-08T00:55:17.835Z,99.26
2022-08-08T00:58:00.630Z,99.38
2022-08-08T01:00:33.354Z,99.56
2022-08-08T01:04:01.089Z,99.12
2022-08-08T01:06:56.195Z,98.75
2022-08-08T01:09:54.126Z,98.19
2022-08-08T01:12:29.711Z,98.99
2022-08-08T01:15:44.292Z,99.26
2022-08-08T01:18:50.714Z,99.35
2022-08-08T01:22:12.735Z,99.75
2022-08-08T01:25:17.638Z,99.56
2022-08-08T01:28:30.763Z,99.22
2022-08-08T01:32:13.587Z,98.88
2022-08-08T01:34:45.447Z,99.16
2022-08-08T01:37:51.085Z,99.25
2022-08-08T01:40:29.863Z,99.85
2022-08-08T01:43:11.279Z,99.77
2022-08-08T01:45:58.353Z,99.24
2022-08-08T01:48:43.842Z,98.90
2022-08-08T01:52:42.795Z,98.88
2022-08-08T01:55:26.038Z,99.48
2022-08-08T01:58:10.913Z,99.71
2022-08-08T02:00:35.994Z,99.29
2022-08-08T02:03:56.990Z,98.36
2022-08-08T02:06:43.487Z,98.30
2022-08-08T02:10:01.349Z,98.40
2022-08-08T02:12:20.692Z,98.32
2022-08-08T02:15:12.493Z,98.26
2022-08-08T02:18:00.108Z,98.87
2022-08-08T02:21:08.271Z,99.42
2022-08-08T02:23:54.538Z,99.11
2022-08-08T02:26:48.688Z,99.27
2022-08-08T02:29:18.981Z,99.53
2022-08-08T02:32:05.551Z,99.53
2022-08-08T02:35:08.024Z,99.54
2022-08-08T02:37:52.461Z,98.93
2022-08-08T02:40:38.083Z,98.97
2022-08-08T02:44:42.850Z,99.61
2022-08-08T02:46:51.056Z,100.00
2022-08-08T02:49:51.969Z,100.00
2022-08-08T02:52:38.525Z,100.00
2022-08-08T02:55:26.665Z,100.00
2022-08-08T02:58:15.022Z,100.00
2022-08-08T03:00:51.207Z,100.00
2022-08-08T03:05:03.307Z,100.00
2022-08-08T03:06:50.289Z,100.00
2022-08-08T03:09:41.513Z,100.00
2022-08-08T03:13:01.422Z,100.00
2022-08-08T03:15:56.775Z,100.00
2022-08-08T03:18:31.695Z,100.00
2022-08-08T03:20:58.116Z,100.00
2022-08-08T03:23:24.513Z,100.00
2022-08-08T03:26:06.181Z,100.00
2022-08-08T03:28:45.891Z,99.86
2022-08-08T03:32:05.175Z,99.79
2022-08-08T03:34:29.518Z,99.96
2022-08-08T03:36:56.804Z,100.00
2022-08-08T03:39:24.073Z,100.00
2022-08-08T03:42:27.261Z,100.00
2022-08-08T03:44:38.639Z,99.86
2022-08-08T03:47:07.077Z,99.72
2022-08-08T03:50:00.067Z,99.62
2022-08-08T03:52:30.587Z,100.00
2022-08-08T03:55:10.183Z,100.00
2022-08-08T03:58:32.023Z,100.00
2022-08-08T04:00:36.514Z,100.00
2022-08-08T04:03:25.955Z,100.00
2022-08-08T04:06:10.442Z,100.00
2022-08-08T04:08:38.493Z,99.52
2022-08-08T04:11:11.068Z,99.42
2022-08-08T04:14:03.459Z,99.51
2022-08-08T04:16:40.200Z,99.48
2022-08-08T04:19:23.485Z,99.63
2022-08-08T04:21:50.649Z,99.96
2022-08-08T04:24:19.511Z,100.00
2022-08-08T04:26:58.281Z,100.00
2022-08-08T04:29:25.771Z,100.00
2022-08-08T04:31:59.687Z,100.00
2022-08-08T04:34:28.032Z,100.00
2022-08-08T04:36:59.109Z,100.00
2022-08-08T04:40:05.557Z,99.67
2022-08-08T04:42:15.729Z,99.23
2022-08-08T04:44:43.520Z,99.35
2022-08-08T04:47:16.621Z,99.21
2022-08-08T04:50:00.589Z,99.28
2022-08-08T04:52:34.138Z,99.30
2022-08-08T04:55:01.814Z,99.53
2022-08-08T04:57:28.757Z,99.18
2022-08-08T04:59:55.523Z,99.59
2022-08-08T05:02:30.686Z,99.26
2022-08-08T05:04:59.392Z,98.73
2022-08-08T05:07:37.876Z,98.83
2022-08-08T05:10:08.758Z,98.59
2022-08-08T05:12:53.453Z,98.32
2022-08-08T05:16:36.415Z,97.70
2022-08-08T05:18:13.030Z,96.42
2022-08-08T05:20:48.459Z,95.05
2022-08-08T05:23:17.329Z,94.03
2022-08-08T05:25:43.704Z,93.16
2022-08-08T05:28:13.393Z,92.39
2022-08-08T05:30:47.370Z,90.20
2022-08-08T05:33:14.736Z,87.81
2022-08-08T05:35:44.437Z,85.60
2022-08-08T05:38:30.197Z,84.53
2022-08-08T05:40:58.534Z,84.26
2022-08-08T05:43:40.235Z,85.79
2022-08-08T05:46:18.687Z,85.49
2022-08-08T05:48:49.975Z,85.47
2022-08-08T05:51:20.701Z,86.34
2022-08-08T05:54:25.954Z,87.03
2022-08-08T05:56:42.267Z,88.23
2022-08-08T05:59:59.838Z,88.65
2022-08-08T06:02:40.947Z,87.56
2022-08-08T06:05:33.207Z,88.56
2022-08-08T06:08:02.168Z,88.10
2022-08-08T06:10:31.835Z,86.91
2022-08-08T06:12:58.307Z,85.74
2022-08-08T06:15:50.051Z,84.98
2022-08-08T06:18:20.953Z,83.35
2022-08-08T06:20:52.857Z,83.25
2022-08-08T06:23:23.646Z,79.31
2022-08-08T06:26:38.749Z,78.03
2022-08-08T06:29:26.274Z,78.23
2022-08-08T06:32:11.088Z,78.84
2022-08-08T06:34:56.184Z,76.24
2022-08-08T06:37:39.258Z,75.07
2022-08-08T06:40:15.942Z,73.83
2022-08-08T06:42:53.663Z,72.32
2022-08-08T06:45:23.014Z,71.27
2022-08-08T06:48:00.686Z,70.68
2022-08-08T06:50:31.946Z,71.07
2022-08-08T06:53:01.412Z,68.49
2022-08-08T06:55:41.604Z,68.69
2022-08-08T06:58:08.400Z,68.77
2022-08-08T07:00:40.707Z,68.92
2022-08-08T07:03:19.448Z,67.37
2022-08-08T07:06:03.468Z,67.15
2022-08-08T07:08:37.135Z,68.47
2022-08-08T07:11:05.510Z,69.16
2022-08-08T07:13:59.918Z,65.25
2022-08-08T07:16:51.169Z,65.66
2022-08-08T07:19:40.733Z,65.91
2022-08-08T07:22:18.427Z,65.07
2022-08-08T07:24:58.240Z,65.79
2022-08-08T07:27:35.526Z,66.57
2022-08-08T07:30:21.200Z,64.55
2022-08-08T07:32:52.763Z,65.26
2022-08-08T07:35:19.437Z,63.70
2022-08-08T07:38:04.747Z,64.12
2022-08-08T07:40:33.963Z,61.52
2022-08-08T07:43:02.608Z,62.17
2022-08-08T07:45:34.780Z,63.59
2022-08-08T07:48:17.456Z,63.37
2022-08-08T07:50:46.956Z,62.47
2022-08-08T07:53:52.153Z,61.73
2022-08-08T07:56:11.132Z,60.48
2022-08-08T07:58:42.831Z,60.43
2022-08-08T08:01:13.697Z,61.61
2022-08-08T08:03:59.847Z,61.21
2022-08-08T08:06:27.361Z,61.79
2022-08-08T08:09:18.134Z,60.13
2022-08-08T08:11:51.670Z,58.91
2022-08-08T08:14:29.151Z,58.16
2022-08-08T08:16:56.257Z,56.00
2022-08-08T08:19:32.112Z,54.40
2022-08-08T08:22:12.475Z,54.24
2022-08-08T08:24:43.069Z,53.87
2022-08-08T08:27:12.774Z,53.34
2022-08-08T08:29:39.663Z,54.82
2022-08-08T08:32:09.213Z,54.50
2022-08-08T08:34:38.003Z,54.63
2022-08-08T08:37:09.926Z,55.54
2022-08-08T08:39:59.522Z,55.72
2022-08-08T08:42:32.091Z,56.34
2022-08-08T08:45:21.942Z,58.49
2022-08-08T08:47:58.230Z,56.75
2022-08-08T08:50:32.928Z,56.00
2022-08-08T08:53:27.432Z,57.05
2022-08-08T08:55:56.013Z,58.25
2022-08-08T08:58:32.836Z,57.07
2022-08-08T09:01:08.391Z,58.80
2022-08-08T09:03:47.404Z,59.17
2022-08-08T09:06:33.203Z,59.26
2022-08-08T09:09:18.806Z,59.81
2022-08-08T09:12:02.023Z,61.68
2022-08-08T09:14:33.990Z,60.81
2022-08-08T09:17:05.326Z,60.16
2022-08-08T09:22:02.626Z,61.87
2022-08-08T09:22:27.180Z,63.03
2022-08-08T09:24:56.069Z,63.76
2022-08-08T09:27:41.827Z,66.87
2022-08-08T09:30:14.576Z,66.95
2022-08-08T09:33:12.592Z,65.66
2022-08-08T09:35:49.036Z,67.85
2022-08-08T09:38:32.079Z,68.84
2022-08-08T09:41:05.272Z,68.48
2022-08-08T09:43:40.752Z,67.68
2022-08-08T09:46:30.974Z,68.04
2022-08-08T09:49:17.977Z,66.67
2022-08-08T09:52:06.678Z,67.17
2022-08-08T09:54:42.455Z,67.60
2022-08-08T09:57:16.128Z,66.48
2022-08-08T10:00:02.253Z,65.61
2022-08-08T10:02:36.351Z,64.67
2022-08-08T10:05:15.281Z,65.68
2022-08-08T10:08:01.486Z,63.79
2022-08-08T10:10:44.571Z,64.76
2022-08-08T10:13:32.401Z,63.08
2022-08-08T10:16:03.822Z,61.75
2022-08-08T10:18:36.504Z,60.92
2022-08-08T10:21:24.739Z,60.51
2022-08-08T10:23:57.943Z,59.55
2022-08-08T10:26:59.493Z,60.66
2022-08-08T10:29:56.784Z,60.85
2022-08-08T10:32:32.385Z,60.66
2022-08-08T10:35:11.714Z,61.43
2022-08-08T10:38:02.195Z,59.75
2022-08-08T10:40:32.728Z,59.62
2022-08-08T10:43:04.794Z,58.70
2022-08-08T10:45:57.176Z,57.88
2022-08-08T10:48:56.537Z,58.36
2022-08-08T10:51:25.933Z,60.01
2022-08-08T10:53:57.704Z,59.41
2022-08-08T10:56:27.077Z,60.16
2022-08-08T10:58:59.673Z,58.73
2022-08-08T11:01:33.530Z,58.90
2022-08-08T11:04:02.815Z,59.72
2022-08-08T11:06:41.348Z,59.39
2022-08-08T11:09:19.910Z,57.30
2022-08-08T11:12:06.347Z,59.06
2022-08-08T11:14:53.580Z,57.98
2022-08-08T11:17:58.688Z,58.95
2022-08-08T11:20:36.802Z,56.34
2022-08-08T11:23:05.379Z,57.56
2022-08-08T11:25:52.278Z,57.31
2022-08-08T11:28:25.551Z,57.04
2022-08-08T11:30:56.629Z,54.55
2022-08-08T11:33:51.311Z,56.02
2022-08-08T11:36:14.358Z,54.02
2022-08-08T11:38:55.307Z,54.24
2022-08-08T11:41:24.533Z,54.27
2022-08-08T11:43:58.163Z,54.78
2022-08-08T11:46:26.694Z,54.49
2022-08-08T11:48:55.219Z,54.45
2022-08-08T11:51:30.395Z,55.32
2022-08-08T11:54:26.963Z,53.94
2022-08-08T11:56:56.129Z,55.23
2022-08-08T11:59:58.851Z,56.54
2022-08-08T12:02:31.716Z,55.55
2022-08-08T12:05:12.376Z,55.49
2022-08-08T12:07:51.370Z,54.02
2022-08-08T12:10:23.323Z,52.49
2022-08-08T12:12:59.775Z,52.50
2022-08-08T12:15:40.149Z,52.96
2022-08-08T12:18:24.412Z,54.10
2022-08-08T12:20:54.308Z,53.21
2022-08-08T12:23:40.291Z,54.60
2022-08-08T12:26:17.274Z,53.13
2022-08-08T12:28:57.581Z,51.35
2022-08-08T12:31:39.252Z,51.49
2022-08-08T12:34:41.627Z,52.98
2022-08-08T12:37:12.215Z,53.04
2022-08-08T12:40:01.429Z,51.01
2022-08-08T12:42:26.424Z,54.27
2022-08-08T12:45:53.480Z,54.41
2022-08-08T12:48:17.956Z,54.58
2022-08-08T12:50:57.553Z,55.33
2022-08-08T12:53:36.405Z,54.45
2022-08-08T12:56:19.530Z,54.37
2022-08-08T12:58:51.801Z,54.30
2022-08-08T13:01:24.698Z,54.15
2022-08-08T13:04:19.271Z,53.54
2022-08-08T13:07:04.392Z,54.73
2022-08-08T13:10:00.848Z,53.28
2022-08-08T13:12:32.386Z,56.29
2022-08-08T13:15:03.697Z,52.64
2022-08-08T13:18:07.651Z,51.28
2022-08-08T13:20:19.922Z,51.44
2022-08-08T13:22:47.455Z,49.87
2022-08-08T13:25:19.763Z,52.13
2022-08-08T13:27:56.624Z,54.21
2022-08-08T13:30:28.167Z,54.38
2022-08-08T13:32:57.084Z,54.10
2022-08-08T13:35:29.574Z,54.43
2022-08-08T13:38:08.370Z,54.67
2022-08-08T13:40:44.923Z,55.61
2022-08-08T13:43:13.843Z,55.50
2022-08-08T13:45:43.395Z,56.81
2022-08-08T13:48:16.628Z,57.03
2022-08-08T13:50:55.076Z,57.03
2022-08-08T13:53:31.401Z,58.54
2022-08-08T13:56:02.548Z,58.61
2022-08-08T13:58:29.965Z,60.76
2022-08-08T14:00:56.727Z,61.00
2022-08-08T14:03:52.736Z,61.73
2022-08-08T14:06:32.449Z,62.68
2022-08-08T14:09:25.510Z,62.85
2022-08-08T14:11:47.909Z,62.16
2022-08-08T14:14:20.615Z,62.40
2022-08-08T14:16:51.975Z,63.00
2022-08-08T14:19:28.054Z,64.07
2022-08-08T14:22:21.301Z,62.86
2022-08-08T14:24:59.920Z,63.24
2022-08-08T14:27:30.942Z,63.66
2022-08-08T14:29:59.771Z,62.87
2022-08-08T14:32:29.948Z,63.50
2022-08-08T14:35:04.544Z,64.96
2022-08-08T14:37:42.815Z,64.48
2022-08-08T14:40:26.474Z,62.99
2022-08-08T14:43:01.394Z,62.49
2022-08-08T14:45:47.076Z,62.64
2022-08-08T14:48:27.633Z,62.13
2022-08-08T14:51:07.354Z,61.83
2022-08-08T14:53:56.762Z,61.44
2022-08-08T14:56:25.563Z,63.50
2022-08-08T14:58:54.442Z,63.27
2022-08-08T15:01:40.740Z,61.86
2022-08-08T15:04:09.382Z,63.48
2022-08-08T15:06:36.175Z,61.02
2022-08-08T15:09:04.185Z,61.31
2022-08-08T15:11:36.484Z,62.40
2022-08-08T15:14:13.629Z,61.16
2022-08-08T15:16:42.563Z,60.19
2022-08-08T15:19:10.715Z,62.09
2022-08-08T15:21:37.721Z,61.39
2022-08-08T15:24:13.657Z,61.35
2022-08-08T15:26:41.482Z,62.21
2022-08-08T15:29:08.064Z,60.98
2022-08-08T15:32:17.906Z,59.62
2022-08-08T15:34:31.758Z,61.20
2022-08-08T15:37:02.119Z,61.30
2022-08-08T15:39:31.466Z,61.26
2022-08-08T15:42:04.778Z,60.29
2022-08-08T15:44:32.757Z,61.11
2022-08-08T15:46:59.361Z,59.01
2022-08-08T15:49:29.507Z,61.07
2022-08-08T15:52:00.927Z,60.70
2022-08-08T15:54:38.113Z,59.12
2022-08-08T15:57:07.362Z,58.96
2022-08-08T16:00:06.618Z,58.40
2022-08-08T16:02:21.540Z,56.79
2022-08-08T16:04:48.268Z,58.03
2022-08-08T16:07:21.132Z,58.30
2022-08-08T16:13:14.180Z,58.23
2022-08-08T16:13:26.832Z,57.69
2022-08-08T16:15:20.467Z,58.97
2022-08-08T16:18:06.301Z,58.71
2022-08-08T16:20:33.944Z,58.40
2022-08-08T16:23:02.527Z,59.10
2022-08-08T16:25:46.612Z,57.17
2022-08-08T16:28:34.764Z,55.76
2022-08-08T16:31:03.254Z,56.67
2022-08-08T16:33:38.410Z,56.51
2022-08-08T16:36:08.852Z,56.00
2022-08-08T16:38:44.415Z,55.67
2022-08-08T16:41:20.709Z,57.81
2022-08-08T16:43:51.485Z,57.32
2022-08-08T16:46:43.975Z,56.53
2022-08-08T16:49:08.033Z,57.23
2022-08-08T16:55:00.973Z,56.66
2022-08-08T16:55:06.670Z,55.53
2022-08-08T16:58:11.749Z,56.87
2022-08-08T17:00:00.515Z,57.83
2022-08-08T17:02:38.042Z,58.18
2022-08-08T17:05:05.813Z,58.75
2022-08-08T17:07:32.249Z,58.89
2022-08-08T17:09:58.924Z,58.90
2022-08-08T17:12:28.557Z,58.90
2022-08-08T17:14:55.402Z,60.25
2022-08-08T17:17:22.990Z,59.28
2022-08-08T17:20:09.339Z,58.72
2022-08-08T17:22:42.522Z,58.11
2022-08-08T17:25:09.430Z,58.92
2022-08-08T17:27:45.998Z,59.40
2022-08-08T17:30:23.367Z,59.95
2022-08-08T17:34:35.138Z,60.96
2022-08-08T17:35:55.400Z,61.53
2022-08-08T17:38:30.814Z,61.91
2022-08-08T17:40:57.514Z,62.67
2022-08-08T17:43:23.907Z,62.34
2022-08-08T17:45:52.299Z,63.06
2022-08-08T17:48:30.857Z,62.74
2022-08-08T17:50:58.166Z,63.52
2022-08-08T17:53:42.962Z,63.47
2022-08-08T17:56:10.238Z,63.15
2022-08-08T17:58:38.748Z,63.22
2022-08-08T18:01:09.273Z,63.02
2022-08-08T18:03:37.059Z,62.52
2022-08-08T18:06:03.595Z,62.77
2022-08-08T18:08:46.505Z,63.94
2022-08-08T18:11:16.609Z,64.12
2022-08-08T18:13:45.589Z,64.23
2022-08-08T18:16:12.825Z,63.38
2022-08-08T18:18:52.589Z,63.45
2022-08-08T18:21:35.160Z,64.67
2022-08-08T18:24:17.553Z,64.30
2022-08-08T18:26:55.059Z,64.78
2022-08-08T18:29:33.754Z,64.93
2022-08-08T18:32:03.512Z,65.36
2022-08-08T18:34:30.539Z,65.05
2022-08-08T18:37:00.331Z,65.37
2022-08-08T18:39:28.507Z,65.23
2022-08-08T18:41:58.225Z,65.02
2022-08-08T18:44:30.070Z,65.63
2022-08-08T18:46:59.759Z,64.95
2022-08-08T18:49:32.338Z,65.59
2022-08-08T18:52:08.054Z,65.92
2022-08-08T18:54:34.620Z,66.04
2022-08-08T18:57:03.794Z,66.56
2022-08-08T18:59:34.498Z,67.04
2022-08-08T19:02:25.541Z,67.31
2022-08-08T19:04:50.144Z,67.61
2022-08-08T19:07:17.885Z,67.86
2022-08-08T19:09:49.300Z,68.35
2022-08-08T19:12:32.167Z,69.64
2022-08-08T19:15:01.601Z,70.56
2022-08-08T19:17:29.298Z,71.79
2022-08-08T19:20:14.175Z,72.36
2022-08-08T19:22:40.523Z,73.11
2022-08-08T19:26:01.700Z,73.49
2022-08-08T19:27:59.965Z,74.50
2022-08-08T19:30:28.063Z,74.62
2022-08-08T19:33:00.457Z,75.10
2022-08-08T19:35:44.409Z,75.62
2022-08-08T19:38:17.280Z,76.06
2022-08-08T19:40:55.763Z,76.57
2022-08-08T19:43:23.003Z,77.32
2022-08-08T19:45:59.331Z,77.49
2022-08-08T19:48:28.575Z,78.04
2022-08-08T19:50:57.232Z,78.38
2022-08-08T19:53:51.033Z,78.81
2022-08-08T19:56:13.075Z,79.69
2022-08-08T19:58:39.947Z,79.25
2022-08-08T20:01:17.090Z,79.78
2022-08-08T20:04:02.268Z,80.15
2022-08-08T20:06:30.333Z,80.04
2022-08-08T20:08:57.018Z,80.31
2022-08-08T20:11:24.607Z,80.93
2022-08-08T20:14:32.311Z,81.02
2022-08-08T20:16:40.956Z,81.29
2022-08-08T20:19:08.457Z,81.77
2022-08-08T20:21:37.049Z,82.13
2022-08-08T20:24:05.583Z,82.49
2022-08-08T20:26:33.564Z,83.18
2022-08-08T20:29:02.553Z,84.20
2022-08-08T20:32:02.547Z,84.50
2022-08-08T20:34:30.411Z,84.31
2022-08-08T20:37:00.143Z,84.45
2022-08-08T20:39:39.399Z,84.48
2022-08-08T20:42:14.380Z,85.21
2022-08-08T20:44:42.028Z,85.47
2022-08-08T20:47:23.106Z,85.69
2022-08-08T20:49:50.924Z,86.11
2022-08-08T20:52:21.637Z,85.95
2022-08-08T20:54:49.779Z,86.09
2022-08-08T20:57:19.006Z,86.41
2022-08-08T20:59:47.413Z,86.71
2022-08-08T21:02:20.014Z,87.35
2022-08-08T21:05:00.850Z,87.38
2022-08-08T21:07:46.926Z,87.47
2022-08-08T21:10:16.818Z,87.71
2022-08-08T21:12:44.486Z,88.16
2022-08-08T21:15:16.528Z,88.20
2022-08-08T21:17:59.677Z,88.77
2022-08-08T21:20:34.460Z,88.92
2022-08-08T21:23:02.464Z,89.35
2022-08-08T21:25:29.500Z,89.75
2022-08-08T21:28:09.090Z,89.88
2022-08-08T21:30:42.659Z,89.94
2022-08-08T21:33:11.912Z,90.43
2022-08-08T21:36:14.269Z,90.43
2022-08-08T21:38:26.516Z,90.67
2022-08-08T21:40:54.755Z,90.63
2022-08-08T21:43:33.651Z,89.80
2022-08-08T21:48:05.442Z,90.05
2022-08-08T21:48:56.784Z,90.13
2022-08-08T21:54:17.235Z,90.92
2022-08-08T21:54:32.787Z,91.49
2022-08-08T21:57:00.729Z,91.32
2022-08-08T21:59:43.839Z,91.44
2022-08-08T22:02:15.975Z,92.02
2022-08-08T22:04:42.778Z,92.21
2022-08-08T22:07:09.182Z,92.56
2022-08-08T22:09:40.820Z,92.13
2022-08-08T22:12:09.824Z,92.03
2022-08-08T22:14:42.647Z,91.95
2022-08-08T22:17:10.333Z,92.28
2022-08-08T22:20:12.444Z,92.58
2022-08-08T22:22:24.412Z,93.35
2022-08-08T22:24:55.644Z,94.06
2022-08-08T22:27:38.588Z,94.12
2022-08-08T22:30:13.716Z,94.57
2022-08-08T22:32:40.394Z,95.29
2022-08-08T22:35:07.442Z,95.01
2022-08-08T22:37:53.704Z,95.28
2022-08-08T22:40:20.934Z,95.63
2022-08-08T22:42:48.089Z,96.34
2022-08-08T22:45:15.703Z,96.00
2022-08-08T22:47:48.553Z,95.95
2022-08-08T22:50:26.096Z,95.42
2022-08-08T22:53:22.551Z,95.35
2022-08-08T22:55:57.709Z,95.16
2022-08-08T22:58:30.823Z,95.29
2022-08-08T23:00:59.747Z,95.11
2022-08-08T23:03:52.960Z,95.36
2022-08-08T23:06:13.713Z,95.57
2022-08-08T23:08:44.379Z,95.98
2022-08-08T23:11:21.461Z,96.62
2022-08-08T23:13:53.625Z,96.47
2022-08-08T23:16:37.660Z,96.40
2022-08-08T23:19:08.825Z,96.69
2022-08-08T23:21:35.642Z,96.95
2022-08-08T23:24:04.830Z,96.89
2022-08-08T23:26:44.314Z,100.00
2022-08-08T23:29:20.333Z,100.00
2022-08-08T23:31:48.539Z,100.00
2022-08-08T23:34:19.516Z,100.00
2022-08-08T23:36:47.086Z,100.00
2022-08-08T23:39:13.790Z,100.00
2022-08-08T23:41:46.278Z,100.00
2022-08-08T23:44:16.940Z,100.00
2022-08-08T23:49:02.866Z,99.34
2022-08-08T23:49:32.791Z,99.61
2022-08-08T23:52:06.105Z,99.28
2022-08-08T23:54:43.445Z,99.40
2022-08-08T23:57:28.466Z,99.90
